Shine, Washington
Current Conditions -  °F | °C
As of 5:53 AM on Wednesday 26 Nov 2014 (Local Time) from KPAE Reporting Station
Overcast Overcast  
Wind Chill: 55°   Ceiling: 1000
Heat Index: 55°   Visibility: 10mi
Dew Point: 51°   Wind: 22mph
Humidity: 86%   Direction: 190°S
Pressure: 30.09"   Gusts: 25mph
Location:  47.9628°N, 122.777°W
Report Text: KPAE 261353Z AUTO 19019G22KT 10SM OVC010 13/11 A3009 RMK AO2 CIG 009V013 SLP192 T01280106
Loading
Personal Weather Stations






























Interactive Weather Map New forecast layout! Learn more

10-Day Weather Forecast

Advertisements
Track Severe Weather on mobile